sensor_id;sensor_type;location;lat;lon;timestamp;P1;durP1;ratioP1;P2;durP2;ratioP2
21862;SDS011;11096;51.338;12.524;2023-03-24T00:01:51;2.88;;;1.58;;
21862;SDS011;11096;51.338;12.524;2023-03-24T00:04:17;1.58;;;1.30;;
21862;SDS011;11096;51.338;12.524;2023-03-24T00:06:43;4.25;;;1.60;;
21862;SDS011;11096;51.338;12.524;2023-03-24T00:09:09;1.40;;;1.08;;
21862;SDS011;11096;51.338;12.524;2023-03-24T00:11:35;1.95;;;1.50;;
21862;SDS011;11096;51.338;12.524;2023-03-24T00:14:01;1.83;;;1.25;;
21862;SDS011;11096;51.338;12.524;2023-03-24T00:16:27;4.05;;;2.00;;
21862;SDS011;11096;51.338;12.524;2023-03-24T00:18:53;1.90;;;1.50;;
21862;SDS011;11096;51.338;12.524;2023-03-24T00:21:19;2.67;;;1.67;;
21862;SDS011;11096;51.338;12.524;2023-03-24T00:23:51;2.30;;;1.50;;
21862;SDS011;11096;51.338;12.524;2023-03-24T00:26:19;3.00;;;2.25;;
21862;SDS011;11096;51.338;12.524;2023-03-24T00:28:46;3.78;;;2.15;;
21862;SDS011;11096;51.338;12.524;2023-03-24T00:31:13;4.05;;;3.17;;
21862;SDS011;11096;51.338;12.524;2023-03-24T00:33:40;2.80;;;2.00;;
21862;SDS011;11096;51.338;12.524;2023-03-24T00:36:08;2.40;;;1.80;;
21862;SDS011;11096;51.338;12.524;2023-03-24T00:38:39;2.90;;;2.00;;
21862;SDS011;11096;51.338;12.524;2023-03-24T00:41:08;4.47;;;2.08;;
21862;SDS011;11096;51.338;12.524;2023-03-24T00:43:37;2.88;;;2.05;;
21862;SDS011;11096;51.338;12.524;2023-03-24T00:46:04;4.30;;;2.58;;
21862;SDS011;11096;51.338;12.524;2023-03-24T00:48:32;3.67;;;2.40;;
21862;SDS011;11096;51.338;12.524;2023-03-24T00:51:00;4.80;;;2.15;;
21862;SDS011;11096;51.338;12.524;2023-03-24T00:53:29;2.88;;;2.10;;
21862;SDS011;11096;51.338;12.524;2023-03-24T00:55:55;3.38;;;2.28;;
21862;SDS011;11096;51.338;12.524;2023-03-24T00:58:22;3.60;;;2.20;;
21862;SDS011;11096;51.338;12.524;2023-03-24T01:00:50;3.08;;;2.08;;
21862;SDS011;11096;51.338;12.524;2023-03-24T01:03:17;4.93;;;2.33;;
21862;SDS011;11096;51.338;12.524;2023-03-24T01:05:46;2.95;;;2.35;;
21862;SDS011;11096;51.338;12.524;2023-03-24T01:08:16;5.93;;;2.30;;
21862;SDS011;11096;51.338;12.524;2023-03-24T01:10:46;3.67;;;2.70;;
21862;SDS011;11096;51.338;12.524;2023-03-24T01:13:24;3.90;;;2.38;;
21862;SDS011;11096;51.338;12.524;2023-03-24T01:15:52;3.45;;;2.63;;
21862;SDS011;11096;51.338;12.524;2023-03-24T01:18:19;3.40;;;2.47;;
21862;SDS011;11096;51.338;12.524;2023-03-24T01:20:47;7.90;;;2.60;;
21862;SDS011;11096;51.338;12.524;2023-03-24T01:23:14;4.32;;;3.35;;
21862;SDS011;11096;51.338;12.524;2023-03-24T01:25:42;3.28;;;2.75;;
21862;SDS011;11096;51.338;12.524;2023-03-24T01:28:13;4.40;;;2.25;;
21862;SDS011;11096;51.338;12.524;2023-03-24T01:30:41;3.83;;;2.70;;
21862;SDS011;11096;51.338;12.524;2023-03-24T01:33:07;4.53;;;2.83;;
21862;SDS011;11096;51.338;12.524;2023-03-24T01:35:33;4.80;;;2.92;;
21862;SDS011;11096;51.338;12.524;2023-03-24T01:37:59;5.22;;;3.00;;
21862;SDS011;11096;51.338;12.524;2023-03-24T01:40:29;3.83;;;3.05;;
21862;SDS011;11096;51.338;12.524;2023-03-24T01:42:56;7.10;;;3.25;;
21862;SDS011;11096;51.338;12.524;2023-03-24T01:48:07;4.90;;;3.83;;
21862;SDS011;11096;51.338;12.524;2023-03-24T01:50:47;6.13;;;3.83;;
21862;SDS011;11096;51.338;12.524;2023-03-24T01:53:20;6.95;;;4.35;;
21862;SDS011;11096;51.338;12.524;2023-03-24T01:55:47;8.80;;;3.75;;
21862;SDS011;11096;51.338;12.524;2023-03-24T01:58:13;7.68;;;4.22;;
21862;SDS011;11096;51.338;12.524;2023-03-24T02:00:39;6.15;;;3.85;;
21862;SDS011;11096;51.338;12.524;2023-03-24T02:03:09;4.82;;;3.63;;
21862;SDS011;11096;51.338;12.524;2023-03-24T02:05:38;6.53;;;4.40;;
21862;SDS011;11096;51.338;12.524;2023-03-24T02:10:55;7.65;;;3.85;;
21862;SDS011;11096;51.338;12.524;2023-03-24T02:13:23;4.93;;;3.67;;
21862;SDS011;11096;51.338;12.524;2023-03-24T02:18:39;8.07;;;3.63;;
21862;SDS011;11096;51.338;12.524;2023-03-24T02:21:25;6.90;;;4.00;;
21862;SDS011;11096;51.338;12.524;2023-03-24T02:35:48;8.00;;;4.22;;
21862;SDS011;11096;51.338;12.524;2023-03-24T02:46:35;6.30;;;4.35;;
21862;SDS011;11096;51.338;12.524;2023-03-24T02:52:16;7.38;;;4.80;;
21862;SDS011;11096;51.338;12.524;2023-03-24T02:57:35;9.65;;;4.82;;
21862;SDS011;11096;51.338;12.524;2023-03-24T03:00:10;12.13;;;5.38;;
21862;SDS011;11096;51.338;12.524;2023-03-24T03:02:40;10.60;;;5.40;;
21862;SDS011;11096;51.338;12.524;2023-03-24T03:05:23;8.88;;;5.68;;
21862;SDS011;11096;51.338;12.524;2023-03-24T03:07:58;9.88;;;5.95;;
21862;SDS011;11096;51.338;12.524;2023-03-24T03:10:28;11.85;;;5.57;;
21862;SDS011;11096;51.338;12.524;2023-03-24T03:12:59;8.18;;;5.88;;
21862;SDS011;11096;51.338;12.524;2023-03-24T03:15:40;9.85;;;6.38;;
21862;SDS011;11096;51.338;12.524;2023-03-24T03:20:42;10.40;;;5.75;;
21862;SDS011;11096;51.338;12.524;2023-03-24T03:23:14;12.13;;;7.15;;
21862;SDS011;11096;51.338;12.524;2023-03-24T03:25:47;11.25;;;6.50;;
21862;SDS011;11096;51.338;12.524;2023-03-24T03:28:18;9.15;;;6.40;;
21862;SDS011;11096;51.338;12.524;2023-03-24T03:30:50;10.77;;;6.57;;
21862;SDS011;11096;51.338;12.524;2023-03-24T03:33:20;8.50;;;6.05;;
21862;SDS011;11096;51.338;12.524;2023-03-24T03:35:56;9.20;;;6.22;;
21862;SDS011;11096;51.338;12.524;2023-03-24T03:40:58;11.95;;;6.20;;
21862;SDS011;11096;51.338;12.524;2023-03-24T03:43:27;15.50;;;5.45;;
21862;SDS011;11096;51.338;12.524;2023-03-24T03:45:55;9.32;;;5.50;;
21862;SDS011;11096;51.338;12.524;2023-03-24T03:48:22;10.80;;;5.93;;
21862;SDS011;11096;51.338;12.524;2023-03-24T03:50:50;12.23;;;6.13;;
21862;SDS011;11096;51.338;12.524;2023-03-24T03:53:16;9.02;;;5.70;;
21862;SDS011;11096;51.338;12.524;2023-03-24T03:55:47;10.18;;;5.88;;
21862;SDS011;11096;51.338;12.524;2023-03-24T03:58:13;10.77;;;5.53;;
21862;SDS011;11096;51.338;12.524;2023-03-24T04:00:39;10.38;;;5.82;;
21862;SDS011;11096;51.338;12.524;2023-03-24T04:08:36;8.05;;;5.65;;
21862;SDS011;11096;51.338;12.524;2023-03-24T04:11:16;9.77;;;5.60;;
21862;SDS011;11096;51.338;12.524;2023-03-24T04:27:13;8.82;;;5.80;;
21862;SDS011;11096;51.338;12.524;2023-03-24T04:29:51;8.70;;;5.95;;
21862;SDS011;11096;51.338;12.524;2023-03-24T04:32:40;8.15;;;5.32;;
21862;SDS011;11096;51.338;12.524;2023-03-24T04:35:16;7.97;;;5.38;;
21862;SDS011;11096;51.338;12.524;2023-03-24T04:37:59;11.85;;;5.60;;
21862;SDS011;11096;51.338;12.524;2023-03-24T04:40:29;10.50;;;5.47;;
21862;SDS011;11096;51.338;12.524;2023-03-24T04:42:57;9.90;;;5.28;;
21862;SDS011;11096;51.338;12.524;2023-03-24T04:45:26;7.68;;;5.10;;
21862;SDS011;11096;51.338;12.524;2023-03-24T04:47:55;8.07;;;5.25;;
21862;SDS011;11096;51.338;12.524;2023-03-24T04:50:27;7.80;;;4.93;;
21862;SDS011;11096;51.338;12.524;2023-03-24T04:52:58;6.72;;;5.07;;
21862;SDS011;11096;51.338;12.524;2023-03-24T04:58:16;9.45;;;5.40;;
21862;SDS011;11096;51.338;12.524;2023-03-24T05:00:43;8.60;;;5.28;;
21862;SDS011;11096;51.338;12.524;2023-03-24T05:03:10;9.18;;;5.43;;
21862;SDS011;11096;51.338;12.524;2023-03-24T05:05:39;11.05;;;5.30;;
21862;SDS011;11096;51.338;12.524;2023-03-24T05:08:08;8.18;;;5.65;;
21862;SDS011;11096;51.338;12.524;2023-03-24T05:10:37;7.68;;;5.20;;
21862;SDS011;11096;51.338;12.524;2023-03-24T05:13:03;9.10;;;6.03;;
21862;SDS011;11096;51.338;12.524;2023-03-24T05:15:29;8.63;;;6.15;;
21862;SDS011;11096;51.338;12.524;2023-03-24T05:17:55;10.90;;;6.00;;
21862;SDS011;11096;51.338;12.524;2023-03-24T05:20:21;9.15;;;6.38;;
21862;SDS011;11096;51.338;12.524;2023-03-24T05:22:47;11.25;;;5.93;;
21862;SDS011;11096;51.338;12.524;2023-03-24T05:25:13;13.60;;;6.13;;
21862;SDS011;11096;51.338;12.524;2023-03-24T05:27:40;8.13;;;5.60;;
21862;SDS011;11096;51.338;12.524;2023-03-24T05:30:06;9.52;;;5.63;;
21862;SDS011;11096;51.338;12.524;2023-03-24T05:32:32;9.05;;;5.80;;
21862;SDS011;11096;51.338;12.524;2023-03-24T05:34:58;11.00;;;5.57;;
21862;SDS011;11096;51.338;12.524;2023-03-24T05:37:23;8.38;;;6.10;;
21862;SDS011;11096;51.338;12.524;2023-03-24T05:39:48;8.23;;;6.13;;
21862;SDS011;11096;51.338;12.524;2023-03-24T05:42:14;10.35;;;6.63;;
21862;SDS011;11096;51.338;12.524;2023-03-24T05:44:41;9.35;;;5.25;;
21862;SDS011;11096;51.338;12.524;2023-03-24T05:47:06;11.10;;;5.97;;
21862;SDS011;11096;51.338;12.524;2023-03-24T05:49:32;10.00;;;5.38;;
21862;SDS011;11096;51.338;12.524;2023-03-24T05:51:57;7.45;;;5.10;;
21862;SDS011;11096;51.338;12.524;2023-03-24T05:54:23;7.85;;;5.13;;
21862;SDS011;11096;51.338;12.524;2023-03-24T05:56:49;6.97;;;5.05;;
21862;SDS011;11096;51.338;12.524;2023-03-24T05:59:15;9.25;;;5.57;;
21862;SDS011;11096;51.338;12.524;2023-03-24T06:01:41;7.80;;;4.85;;
21862;SDS011;11096;51.338;12.524;2023-03-24T06:04:07;9.27;;;5.28;;
21862;SDS011;11096;51.338;12.524;2023-03-24T06:06:32;7.72;;;5.05;;
21862;SDS011;11096;51.338;12.524;2023-03-24T06:08:58;7.65;;;5.18;;
21862;SDS011;11096;51.338;12.524;2023-03-24T06:11:26;9.80;;;5.40;;
21862;SDS011;11096;51.338;12.524;2023-03-24T06:13:52;8.02;;;5.32;;
21862;SDS011;11096;51.338;12.524;2023-03-24T06:16:23;6.30;;;4.88;;
21862;SDS011;11096;51.338;12.524;2023-03-24T06:18:49;5.68;;;4.40;;
21862;SDS011;11096;51.338;12.524;2023-03-24T06:21:16;8.02;;;4.38;;
21862;SDS011;11096;51.338;12.524;2023-03-24T06:23:42;6.53;;;3.67;;
21862;SDS011;11096;51.338;12.524;2023-03-24T06:26:09;7.00;;;3.90;;
21862;SDS011;11096;51.338;12.524;2023-03-24T06:28:35;5.80;;;3.90;;
21862;SDS011;11096;51.338;12.524;2023-03-24T06:31:04;7.25;;;3.90;;
21862;SDS011;11096;51.338;12.524;2023-03-24T06:33:30;7.47;;;3.67;;
21862;SDS011;11096;51.338;12.524;2023-03-24T06:35:55;5.20;;;3.50;;
21862;SDS011;11096;51.338;12.524;2023-03-24T06:38:21;6.20;;;3.42;;
21862;SDS011;11096;51.338;12.524;2023-03-24T06:40:46;4.53;;;3.47;;
21862;SDS011;11096;51.338;12.524;2023-03-24T06:43:12;5.60;;;3.28;;
21862;SDS011;11096;51.338;12.524;2023-03-24T06:45:37;4.15;;;3.00;;
21862;SDS011;11096;51.338;12.524;2023-03-24T06:48:05;3.00;;;2.38;;
21862;SDS011;11096;51.338;12.524;2023-03-24T06:50:31;3.55;;;2.67;;
21862;SDS011;11096;51.338;12.524;2023-03-24T06:52:59;3.90;;;2.42;;
21862;SDS011;11096;51.338;12.524;2023-03-24T06:55:25;4.07;;;2.83;;
21862;SDS011;11096;51.338;12.524;2023-03-24T06:57:51;6.30;;;2.63;;
21862;SDS011;11096;51.338;12.524;2023-03-24T07:00:16;4.55;;;2.90;;
21862;SDS011;11096;51.338;12.524;2023-03-24T07:02:42;3.38;;;2.45;;
21862;SDS011;11096;51.338;12.524;2023-03-24T07:05:07;5.20;;;2.42;;
21862;SDS011;11096;51.338;12.524;2023-03-24T07:07:35;3.95;;;2.78;;
21862;SDS011;11096;51.338;12.524;2023-03-24T07:10:01;5.22;;;3.00;;
21862;SDS011;11096;51.338;12.524;2023-03-24T07:12:28;3.17;;;2.50;;
21862;SDS011;11096;51.338;12.524;2023-03-24T07:14:55;6.70;;;2.70;;
21862;SDS011;11096;51.338;12.524;2023-03-24T07:17:20;6.40;;;2.80;;
21862;SDS011;11096;51.338;12.524;2023-03-24T07:19:46;3.80;;;2.95;;
21862;SDS011;11096;51.338;12.524;2023-03-24T07:22:11;3.33;;;2.42;;
21862;SDS011;11096;51.338;12.524;2023-03-24T07:24:37;3.58;;;2.13;;
21862;SDS011;11096;51.338;12.524;2023-03-24T07:27:03;4.07;;;2.80;;
21862;SDS011;11096;51.338;12.524;2023-03-24T07:29:29;3.00;;;2.13;;
21862;SDS011;11096;51.338;12.524;2023-03-24T07:31:55;3.53;;;2.35;;
21862;SDS011;11096;51.338;12.524;2023-03-24T07:34:23;4.65;;;2.75;;
21862;SDS011;11096;51.338;12.524;2023-03-24T07:36:50;2.80;;;2.50;;
21862;SDS011;11096;51.338;12.524;2023-03-24T07:39:15;3.33;;;2.65;;
21862;SDS011;11096;51.338;12.524;2023-03-24T07:41:41;3.72;;;2.42;;
21862;SDS011;11096;51.338;12.524;2023-03-24T07:44:07;3.65;;;2.80;;
21862;SDS011;11096;51.338;12.524;2023-03-24T07:46:33;5.65;;;2.75;;
21862;SDS011;11096;51.338;12.524;2023-03-24T07:48:59;5.15;;;2.60;;
21862;SDS011;11096;51.338;12.524;2023-03-24T07:51:24;3.53;;;2.75;;
21862;SDS011;11096;51.338;12.524;2023-03-24T07:53:50;3.72;;;2.50;;
21862;SDS011;11096;51.338;12.524;2023-03-24T07:56:15;5.95;;;2.53;;
21862;SDS011;11096;51.338;12.524;2023-03-24T07:58:41;4.20;;;2.50;;
21862;SDS011;11096;51.338;12.524;2023-03-24T08:01:06;3.25;;;2.47;;
21862;SDS011;11096;51.338;12.524;2023-03-24T08:03:34;3.92;;;2.80;;
21862;SDS011;11096;51.338;12.524;2023-03-24T08:06:00;4.65;;;2.30;;
21862;SDS011;11096;51.338;12.524;2023-03-24T08:08:26;2.70;;;2.30;;
21862;SDS011;11096;51.338;12.524;2023-03-24T08:10:51;3.38;;;2.25;;
21862;SDS011;11096;51.338;12.524;2023-03-24T08:13:17;3.20;;;2.53;;
21862;SDS011;11096;51.338;12.524;2023-03-24T08:15:42;2.03;;;1.60;;
21862;SDS011;11096;51.338;12.524;2023-03-24T08:18:08;2.75;;;1.80;;
21862;SDS011;11096;51.338;12.524;2023-03-24T08:20:33;3.50;;;1.98;;
21862;SDS011;11096;51.338;12.524;2023-03-24T08:22:59;3.67;;;1.73;;
21862;SDS011;11096;51.338;12.524;2023-03-24T08:25:25;2.25;;;1.65;;
21862;SDS011;11096;51.338;12.524;2023-03-24T08:27:51;3.45;;;1.85;;
21862;SDS011;11096;51.338;12.524;2023-03-24T08:30:18;2.67;;;1.65;;
21862;SDS011;11096;51.338;12.524;2023-03-24T08:32:56;2.08;;;1.35;;
21862;SDS011;11096;51.338;12.524;2023-03-24T08:35:25;1.95;;;1.20;;
21862;SDS011;11096;51.338;12.524;2023-03-24T08:37:55;1.75;;;1.25;;
21862;SDS011;11096;51.338;12.524;2023-03-24T08:40:23;1.45;;;1.25;;
21862;SDS011;11096;51.338;12.524;2023-03-24T08:42:51;2.17;;;1.50;;
21862;SDS011;11096;51.338;12.524;2023-03-24T08:45:19;2.05;;;1.25;;
21862;SDS011;11096;51.338;12.524;2023-03-24T08:47:46;1.52;;;1.20;;
21862;SDS011;11096;51.338;12.524;2023-03-24T08:50:13;1.90;;;1.10;;
21862;SDS011;11096;51.338;12.524;2023-03-24T08:52:38;3.40;;;1.20;;
21862;SDS011;11096;51.338;12.524;2023-03-24T08:55:06;1.50;;;1.20;;
21862;SDS011;11096;51.338;12.524;2023-03-24T08:57:33;1.75;;;1.10;;
21862;SDS011;11096;51.338;12.524;2023-03-24T08:59:58;2.05;;;1.10;;
21862;SDS011;11096;51.338;12.524;2023-03-24T09:02:24;1.48;;;1.17;;
21862;SDS011;11096;51.338;12.524;2023-03-24T09:04:49;1.48;;;1.10;;
21862;SDS011;11096;51.338;12.524;2023-03-24T09:07:18;1.13;;;1.02;;
21862;SDS011;11096;51.338;12.524;2023-03-24T09:09:43;1.95;;;1.40;;
21862;SDS011;11096;51.338;12.524;2023-03-24T09:12:08;3.70;;;1.10;;
21862;SDS011;11096;51.338;12.524;2023-03-24T09:14:34;1.33;;;0.70;;
21862;SDS011;11096;51.338;12.524;2023-03-24T09:16:59;1.70;;;1.00;;
21862;SDS011;11096;51.338;12.524;2023-03-24T09:19:25;1.35;;;0.90;;
21862;SDS011;11096;51.338;12.524;2023-03-24T09:21:50;0.98;;;0.80;;
21862;SDS011;11096;51.338;12.524;2023-03-24T09:24:16;1.55;;;0.98;;
21862;SDS011;11096;51.338;12.524;2023-03-24T09:26:41;1.45;;;1.00;;
21862;SDS011;11096;51.338;12.524;2023-03-24T09:29:07;1.00;;;0.90;;
21862;SDS011;11096;51.338;12.524;2023-03-24T09:31:32;1.20;;;1.10;;
21862;SDS011;11096;51.338;12.524;2023-03-24T09:33:58;1.80;;;0.90;;
21862;SDS011;11096;51.338;12.524;2023-03-24T09:36:24;1.10;;;1.00;;
21862;SDS011;11096;51.338;12.524;2023-03-24T09:38:50;2.28;;;1.30;;
21862;SDS011;11096;51.338;12.524;2023-03-24T09:41:20;1.77;;;1.20;;
21862;SDS011;11096;51.338;12.524;2023-03-24T09:43:55;2.13;;;1.10;;
21862;SDS011;11096;51.338;12.524;2023-03-24T09:48:59;2.00;;;1.00;;
21862;SDS011;11096;51.338;12.524;2023-03-24T09:54:03;0.88;;;0.75;;
21862;SDS011;11096;51.338;12.524;2023-03-24T09:56:36;1.23;;;1.00;;
21862;SDS011;11096;51.338;12.524;2023-03-24T09:59:05;2.20;;;1.08;;
21862;SDS011;11096;51.338;12.524;2023-03-24T10:01:36;1.50;;;1.10;;
21862;SDS011;11096;51.338;12.524;2023-03-24T10:04:02;1.35;;;1.00;;
21862;SDS011;11096;51.338;12.524;2023-03-24T10:06:35;1.05;;;0.93;;
21862;SDS011;11096;51.338;12.524;2023-03-24T10:14:50;1.73;;;1.05;;
21862;SDS011;11096;51.338;12.524;2023-03-24T10:20:08;2.33;;;1.50;;
21862;SDS011;11096;51.338;12.524;2023-03-24T10:28:52;3.03;;;1.63;;
21862;SDS011;11096;51.338;12.524;2023-03-24T10:31:28;2.45;;;1.40;;
21862;SDS011;11096;51.338;12.524;2023-03-24T10:33:56;2.88;;;1.15;;
21862;SDS011;11096;51.338;12.524;2023-03-24T10:36:23;1.38;;;1.17;;
21862;SDS011;11096;51.338;12.524;2023-03-24T10:38:49;1.42;;;0.93;;
21862;SDS011;11096;51.338;12.524;2023-03-24T10:41:18;1.23;;;0.80;;
21862;SDS011;11096;51.338;12.524;2023-03-24T10:43:46;2.45;;;0.95;;
21862;SDS011;11096;51.338;12.524;2023-03-24T10:46:13;1.50;;;1.20;;
21862;SDS011;11096;51.338;12.524;2023-03-24T10:48:43;1.30;;;1.00;;
21862;SDS011;11096;51.338;12.524;2023-03-24T10:51:17;0.73;;;0.70;;
21862;SDS011;11096;51.338;12.524;2023-03-24T10:53:44;1.13;;;0.90;;
21862;SDS011;11096;51.338;12.524;2023-03-24T10:56:15;1.65;;;0.77;;
21862;SDS011;11096;51.338;12.524;2023-03-24T10:59:02;1.95;;;1.20;;
21862;SDS011;11096;51.338;12.524;2023-03-24T11:01:30;1.20;;;0.90;;
21862;SDS011;11096;51.338;12.524;2023-03-24T11:03:59;0.90;;;0.70;;
21862;SDS011;11096;51.338;12.524;2023-03-24T11:06:29;0.60;;;0.60;;
21862;SDS011;11096;51.338;12.524;2023-03-24T11:09:09;1.38;;;0.55;;
21862;SDS011;11096;51.338;12.524;2023-03-24T11:11:42;1.55;;;0.63;;
21862;SDS011;11096;51.338;12.524;2023-03-24T11:14:17;2.00;;;0.77;;
21862;SDS011;11096;51.338;12.524;2023-03-24T11:16:49;1.08;;;0.60;;
21862;SDS011;11096;51.338;12.524;2023-03-24T11:19:22;1.55;;;0.82;;
21862;SDS011;11096;51.338;12.524;2023-03-24T11:21:49;0.60;;;0.60;;
21862;SDS011;11096;51.338;12.524;2023-03-24T11:24:16;1.10;;;0.50;;
21862;SDS011;11096;51.338;12.524;2023-03-24T11:26:45;0.50;;;0.43;;
21862;SDS011;11096;51.338;12.524;2023-03-24T11:29:17;0.70;;;0.50;;
21862;SDS011;11096;51.338;12.524;2023-03-24T11:31:59;1.00;;;0.30;;
21862;SDS011;11096;51.338;12.524;2023-03-24T11:34:32;1.63;;;0.60;;
21862;SDS011;11096;51.338;12.524;2023-03-24T11:40:05;1.60;;;0.47;;
21862;SDS011;11096;51.338;12.524;2023-03-24T11:42:45;1.17;;;0.70;;
21862;SDS011;11096;51.338;12.524;2023-03-24T11:48:24;1.17;;;0.43;;
21862;SDS011;11096;51.338;12.524;2023-03-24T11:50:58;0.80;;;0.70;;
21862;SDS011;11096;51.338;12.524;2023-03-24T11:53:30;2.65;;;0.90;;
21862;SDS011;11096;51.338;12.524;2023-03-24T11:56:08;1.05;;;0.73;;
21862;SDS011;11096;51.338;12.524;2023-03-24T11:58:43;5.25;;;1.13;;
21862;SDS011;11096;51.338;12.524;2023-03-24T12:01:15;1.98;;;0.88;;
21862;SDS011;11096;51.338;12.524;2023-03-24T12:06:41;2.75;;;0.80;;
21862;SDS011;11096;51.338;12.524;2023-03-24T12:17:39;1.92;;;0.68;;
21862;SDS011;11096;51.338;12.524;2023-03-24T12:20:12;0.65;;;0.60;;
21862;SDS011;11096;51.338;12.524;2023-03-24T12:34:40;1.55;;;0.90;;
21862;SDS011;11096;51.338;12.524;2023-03-24T12:42:38;3.03;;;0.90;;
21862;SDS011;11096;51.338;12.524;2023-03-24T12:55:40;1.13;;;0.63;;
21862;SDS011;11096;51.338;12.524;2023-03-24T12:58:23;1.00;;;0.77;;
21862;SDS011;11096;51.338;12.524;2023-03-24T13:01:15;0.70;;;0.70;;
21862;SDS011;11096;51.338;12.524;2023-03-24T13:03:49;3.35;;;1.00;;
21862;SDS011;11096;51.338;12.524;2023-03-24T13:17:13;2.42;;;0.90;;
21862;SDS011;11096;51.338;12.524;2023-03-24T13:19:45;3.05;;;1.30;;
21862;SDS011;11096;51.338;12.524;2023-03-24T13:22:14;2.72;;;1.10;;
21862;SDS011;11096;51.338;12.524;2023-03-24T13:24:42;2.45;;;1.00;;
21862;SDS011;11096;51.338;12.524;2023-03-24T13:29:59;1.77;;;1.00;;
21862;SDS011;11096;51.338;12.524;2023-03-24T13:32:37;2.13;;;0.88;;
21862;SDS011;11096;51.338;12.524;2023-03-24T13:37:51;2.05;;;1.02;;
21862;SDS011;11096;51.338;12.524;2023-03-24T13:40:24;1.67;;;0.93;;
21862;SDS011;11096;51.338;12.524;2023-03-24T13:42:55;2.30;;;1.08;;
21862;SDS011;11096;51.338;12.524;2023-03-24T13:46:22;1.25;;;1.10;;
21862;SDS011;11096;51.338;12.524;2023-03-24T13:48:29;1.75;;;1.13;;
21862;SDS011;11096;51.338;12.524;2023-03-24T13:51:03;2.78;;;1.27;;
21862;SDS011;11096;51.338;12.524;2023-03-24T13:53:38;2.05;;;1.35;;
21862;SDS011;11096;51.338;12.524;2023-03-24T13:56:08;2.33;;;1.27;;
21862;SDS011;11096;51.338;12.524;2023-03-24T13:58:45;3.28;;;1.25;;
21862;SDS011;11096;51.338;12.524;2023-03-24T14:01:33;2.25;;;1.00;;
21862;SDS011;11096;51.338;12.524;2023-03-24T14:10:42;2.08;;;1.20;;
21862;SDS011;11096;51.338;12.524;2023-03-24T14:17:54;1.60;;;1.20;;
21862;SDS011;11096;51.338;12.524;2023-03-24T14:20:37;2.15;;;1.50;;
21862;SDS011;11096;51.338;12.524;2023-03-24T14:23:13;2.85;;;1.42;;
21862;SDS011;11096;51.338;12.524;2023-03-24T14:25:51;1.20;;;1.08;;
21862;SDS011;11096;51.338;12.524;2023-03-24T14:28:20;2.67;;;1.27;;
21862;SDS011;11096;51.338;12.524;2023-03-24T14:31:01;2.50;;;1.30;;
21862;SDS011;11096;51.338;12.524;2023-03-24T14:33:37;2.35;;;1.15;;
21862;SDS011;11096;51.338;12.524;2023-03-24T14:36:04;2.83;;;1.23;;
21862;SDS011;11096;51.338;12.524;2023-03-24T14:38:36;2.40;;;1.20;;
21862;SDS011;11096;51.338;12.524;2023-03-24T14:41:15;3.60;;;1.00;;
21862;SDS011;11096;51.338;12.524;2023-03-24T14:51:39;1.45;;;0.80;;
21862;SDS011;11096;51.338;12.524;2023-03-24T14:57:08;1.17;;;0.77;;
21862;SDS011;11096;51.338;12.524;2023-03-24T15:00:06;2.38;;;0.88;;
21862;SDS011;11096;51.338;12.524;2023-03-24T15:02:45;1.45;;;0.90;;
21862;SDS011;11096;51.338;12.524;2023-03-24T15:13:30;3.10;;;0.80;;
21862;SDS011;11096;51.338;12.524;2023-03-24T15:15:59;2.67;;;0.82;;
21862;SDS011;11096;51.338;12.524;2023-03-24T15:18:27;0.57;;;0.57;;
21862;SDS011;11096;51.338;12.524;2023-03-24T15:20:53;4.32;;;0.90;;
21862;SDS011;11096;51.338;12.524;2023-03-24T15:23:22;3.03;;;0.75;;
21862;SDS011;11096;51.338;12.524;2023-03-24T15:25:50;4.40;;;1.00;;
21862;SDS011;11096;51.338;12.524;2023-03-24T15:28:28;4.15;;;1.10;;
21862;SDS011;11096;51.338;12.524;2023-03-24T15:30:55;1.27;;;0.85;;
21862;SDS011;11096;51.338;12.524;2023-03-24T15:33:25;1.05;;;0.70;;
21862;SDS011;11096;51.338;12.524;2023-03-24T15:35:55;1.65;;;0.70;;
21862;SDS011;11096;51.338;12.524;2023-03-24T15:38:29;1.67;;;0.80;;
21862;SDS011;11096;51.338;12.524;2023-03-24T15:41:00;2.03;;;0.70;;
21862;SDS011;11096;51.338;12.524;2023-03-24T15:43:26;0.80;;;0.80;;
21862;SDS011;11096;51.338;12.524;2023-03-24T15:45:53;1.45;;;0.88;;
21862;SDS011;11096;51.338;12.524;2023-03-24T15:48:22;2.25;;;0.77;;
21862;SDS011;11096;51.338;12.524;2023-03-24T15:50:54;2.08;;;1.00;;
21862;SDS011;11096;51.338;12.524;2023-03-24T15:53:21;1.92;;;0.70;;
21862;SDS011;11096;51.338;12.524;2023-03-24T15:56:00;2.90;;;0.90;;
21862;SDS011;11096;51.338;12.524;2023-03-24T15:58:28;0.68;;;0.65;;
21862;SDS011;11096;51.338;12.524;2023-03-24T16:00:58;1.13;;;0.80;;
21862;SDS011;11096;51.338;12.524;2023-03-24T16:03:26;4.65;;;1.27;;
21862;SDS011;11096;51.338;12.524;2023-03-24T16:05:54;1.13;;;0.90;;
21862;SDS011;11096;51.338;12.524;2023-03-24T16:08:28;3.40;;;0.80;;
21862;SDS011;11096;51.338;12.524;2023-03-24T16:11:10;4.88;;;1.08;;
21862;SDS011;11096;51.338;12.524;2023-03-24T16:13:37;3.00;;;0.98;;
21862;SDS011;11096;51.338;12.524;2023-03-24T16:16:20;3.28;;;1.00;;
21862;SDS011;11096;51.338;12.524;2023-03-24T16:18:49;3.20;;;0.85;;
21862;SDS011;11096;51.338;12.524;2023-03-24T16:21:17;4.72;;;1.08;;
21862;SDS011;11096;51.338;12.524;2023-03-24T16:23:45;2.85;;;1.08;;
21862;SDS011;11096;51.338;12.524;2023-03-24T16:26:12;1.77;;;1.00;;
21862;SDS011;11096;51.338;12.524;2023-03-24T16:28:38;3.08;;;1.05;;
21862;SDS011;11096;51.338;12.524;2023-03-24T16:31:04;2.72;;;1.10;;
21862;SDS011;11096;51.338;12.524;2023-03-24T16:33:30;1.27;;;0.90;;
21862;SDS011;11096;51.338;12.524;2023-03-24T16:35:57;3.60;;;1.13;;
21862;SDS011;11096;51.338;12.524;2023-03-24T16:38:23;1.48;;;1.15;;
21862;SDS011;11096;51.338;12.524;2023-03-24T16:40:51;4.43;;;1.20;;
21862;SDS011;11096;51.338;12.524;2023-03-24T16:43:18;3.58;;;1.00;;
21862;SDS011;11096;51.338;12.524;2023-03-24T16:45:44;4.10;;;1.13;;
21862;SDS011;11096;51.338;12.524;2023-03-24T16:48:11;5.18;;;1.50;;
21862;SDS011;11096;51.338;12.524;2023-03-24T16:50:38;2.38;;;1.40;;
21862;SDS011;11096;51.338;12.524;2023-03-24T16:53:07;2.78;;;1.15;;
21862;SDS011;11096;51.338;12.524;2023-03-24T16:55:33;3.88;;;1.30;;
21862;SDS011;11096;51.338;12.524;2023-03-24T16:57:59;1.70;;;1.25;;
21862;SDS011;11096;51.338;12.524;2023-03-24T17:00:25;4.07;;;1.40;;
21862;SDS011;11096;51.338;12.524;2023-03-24T17:02:51;4.72;;;1.52;;
21862;SDS011;11096;51.338;12.524;2023-03-24T17:05:25;5.68;;;1.38;;
21862;SDS011;11096;51.338;12.524;2023-03-24T17:07:55;11.18;;;4.78;;
21862;SDS011;11096;51.338;12.524;2023-03-24T17:10:22;17.35;;;9.80;;
21862;SDS011;11096;51.338;12.524;2023-03-24T17:12:49;14.40;;;6.90;;
21862;SDS011;11096;51.338;12.524;2023-03-24T17:15:21;15.63;;;6.15;;
21862;SDS011;11096;51.338;12.524;2023-03-24T17:17:51;5.82;;;3.22;;
21862;SDS011;11096;51.338;12.524;2023-03-24T17:20:17;3.92;;;2.15;;
21862;SDS011;11096;51.338;12.524;2023-03-24T17:22:44;6.45;;;3.50;;
21862;SDS011;11096;51.338;12.524;2023-03-24T17:25:13;3.47;;;2.10;;
21862;SDS011;11096;51.338;12.524;2023-03-24T17:27:41;3.17;;;2.00;;
21862;SDS011;11096;51.338;12.524;2023-03-24T17:30:06;2.17;;;1.58;;
21862;SDS011;11096;51.338;12.524;2023-03-24T17:32:35;8.05;;;4.05;;
21862;SDS011;11096;51.338;12.524;2023-03-24T17:35:00;26.30;;;11.98;;
21862;SDS011;11096;51.338;12.524;2023-03-24T17:37:29;18.30;;;9.90;;
21862;SDS011;11096;51.338;12.524;2023-03-24T17:39:55;23.15;;;11.73;;